Weather reports worldwide

Advertisment
Aranda de Duero, Spain (8144): temperature & dewpoint: 20.05.2019 02:00:00 - 26.05.2019 02:00:00 (CEST)Aranda de Duero, Spain (8144): wind speed & gusts: 20.05.2019 02:00:00 - 26.05.2019 02:00:00 (CEST)Aranda de Duero, Spain (8144): wind direction: 20.05.2019 02:00:00 - 26.05.2019 02:00:00 (CEST)Aranda de Duero, Spain (8144): visibility: 20.05.2019 02:00:00 - 26.05.2019 02:00:00 (CEST)Aranda de Duero, Spain (8144): sunshine duration: 20.05.2019 02:00:00 - 26.05.2019 02:00:00 (CEST)Aranda de Duero, Spain (8144): precipitation: 20.05.2019 02:00:00 - 26.05.2019 02:00:00 (CEST)
Date & Time tt [°C] td [°C] ff [km/h] ff [kn] fx [km/h] fx [kn] dd vv [km] sd [min] rr [mm]
26.05.2019 02:00:00 - - - - - - - - - -
26.05.2019 01:00:00 9,5 2,9 4 2 13 7 NNW 15 0 0,0
26.05.2019 00:00:00 10,5 2,7 4 2 21 11 N 14 0 0,0
25.05.2019 23:00:00 11,6 2,9 10 5 25 14 N 14 0 0,0
25.05.2019 22:00:00 12,6 3,0 11 6 32 18 N 14 0 0,0
25.05.2019 21:00:00 14,4 3,6 11 6 29 16 N 14 0 0,0
25.05.2019 20:00:00 15,9 3,4 13 7 37 20 N 13 29 -
25.05.2019 19:00:00 17,2 3,4 12 6 35 19 NNE 14 60 0,0
25.05.2019 18:00:00 17,8 3,9 15 8 38 20 N 15 41 0,0
25.05.2019 17:00:00 19,3 2,7 10 5 24 13 NNE 17 1 0,0
25.05.2019 16:00:00 19,0 2,9 11 6 27 15 N 13 40 0,0
25.05.2019 15:00:00 17,9 3,0 9 5 29 16 N 18 30 0,0
25.05.2019 14:00:00 16,8 4,5 15 8 32 18 N 15 60 -
25.05.2019 13:00:00 16,8 4,1 13 7 35 19 N 13 60 0,0
25.05.2019 12:00:00 15,3 4,6 12 7 33 18 N 18 60 0,0
25.05.2019 11:00:00 14,3 3,4 11 6 29 16 NE 14 60 0,0
25.05.2019 10:00:00 11,9 3,9 13 7 36 19 N 15 42 0,0
25.05.2019 09:00:00 12,1 3,8 13 7 30 16 N 19 55 0,0
25.05.2019 08:00:00 10,2 5,0 4 2 20 11 NW 17 8 -
25.05.2019 07:00:00 9,1 4,3 7 4 21 12 NNW 14 0 0,0
25.05.2019 06:00:00 9,0 4,3 8 4 21 11 NNW 16 0 0,0
25.05.2019 05:00:00 9,3 4,5 9 5 19 11 N 16 0 0,0
25.05.2019 04:00:00 9,5 4,6 2 1 18 10 WNW 15 0 0,0
25.05.2019 03:00:00 9,9 4,6 9 5 21 11 N 15 0 0,0
25.05.2019 02:00:00 9,4 4,8 9 5 22 12 N 15 0 -
25.05.2019 01:00:00 9,7 4,5 8 4 23 13 N 15 0 0,0
25.05.2019 00:00:00 10,5 4,8 10 6 27 15 NNE 15 0 0,0
24.05.2019 23:00:00 10,8 4,5 4 2 23 12 NNE 14 0 0,0
24.05.2019 22:00:00 11,5 4,5 10 5 31 17 N 14 0 0,0
24.05.2019 21:00:00 12,7 4,1 12 6 38 20 NE 15 0 0,0
24.05.2019 20:00:00 14,2 3,9 14 8 42 23 NNE 14 23 -
24.05.2019 19:00:00 15,5 1,9 15 8 40 22 NE 12 57 0,0
24.05.2019 18:00:00 16,2 2,7 16 9 41 22 NNE 13 25 0,0
24.05.2019 17:00:00 16,9 2,5 14 8 44 24 NNE 13 5 0,0
24.05.2019 16:00:00 17,3 3,2 18 10 45 24 N 13 42 0,0
24.05.2019 15:00:00 17,4 3,6 21 11 41 22 NNW 13 37 0,0
24.05.2019 14:00:00 17,4 3,2 18 10 38 20 NNW 20 60 -
24.05.2019 13:00:00 17,4 4,3 12 7 39 21 N 15 60 0,0
24.05.2019 12:00:00 16,4 5,3 14 7 35 19 NNE 13 60 0,0
24.05.2019 11:00:00 15,9 5,8 13 7 32 17 N 15 60 0,0
24.05.2019 10:00:00 14,9 6,2 11 6 24 13 N 12 28 0,0
24.05.2019 09:00:00 11,8 5,9 10 5 24 13 N 14 0 0,0
24.05.2019 08:00:00 11,3 5,8 9 5 20 11 N 14 0 -
24.05.2019 07:00:00 12,5 5,9 3 2 15 8 ENE 15 0 0,0
24.05.2019 06:00:00 12,4 5,6 3 2 15 8 NNE 14 0 0,0
24.05.2019 05:00:00 12,6 5,9 5 3 21 11 NE 14 0 0,0
24.05.2019 04:00:00 12,3 5,9 9 5 24 13 N 5 0 0,0
24.05.2019 03:00:00 12,0 6,8 9 5 25 14 N 14 0 0,0
24.05.2019 02:00:00 13,3 8,1 3 1 14 8 W 12 0 -
24.05.2019 01:00:00 14,4 8,1 4 2 9 5 SW 12 0 0,0
24.05.2019 00:00:00 15,4 8,1 3 2 15 8 WNW 11 0 0,0
23.05.2019 23:00:00 17,8 9,2 3 2 8 5 NW 11 0 0,0
23.05.2019 22:00:00 19,6 8,9 4 2 15 8 ENE 12 0 0,0
23.05.2019 21:00:00 21,8 6,1 3 2 19 11 NNW 13 0 0,0
23.05.2019 20:00:00 22,9 5,3 10 5 29 16 NNW 15 19 -
23.05.2019 19:00:00 24,2 4,5 14 7 29 15 NNW 14 40 0,0
23.05.2019 18:00:00 28,0 -3,0 10 6 33 18 WSW 15 29 0,0
23.05.2019 17:00:00 27,4 0,2 9 5 32 17 W 11 0 0,0
23.05.2019 16:00:00 27,2 0,9 9 5 27 15 WSW 13 42 0,0
23.05.2019 15:00:00 24,2 5,9 4 2 20 11 W 15 35 0,0
23.05.2019 14:00:00 24,4 5,6 4 2 16 9 WSW 13 53 -
23.05.2019 13:00:00 23,4 6,2 5 3 18 10 WSW 14 60 0,0
23.05.2019 12:00:00 21,9 6,5 3 2 15 8 SW 13 54 0,0
23.05.2019 11:00:00 20,4 6,7 5 3 16 9 WSW 6 60 0,0
23.05.2019 10:00:00 17,2 6,1 3 2 8 5 E 14 60 0,0
23.05.2019 09:00:00 14,9 6,2 4 2 10 6 E 12 41 0,0
23.05.2019 08:00:00 11,3 6,2 3 1 6 3 S 12 8 -
23.05.2019 07:00:00 10,0 5,1 4 2 9 5 ESE 12 0 0,0
23.05.2019 06:00:00 9,7 5,1 3 2 17 9 SE 13 0 0,0
23.05.2019 05:00:00 11,0 4,8 4 2 9 5 SSW 13 0 0,0
23.05.2019 04:00:00 10,8 4,5 6 3 11 6 ESE 13 0 0,0
23.05.2019 03:00:00 10,9 4,3 6 4 11 6 E 13 0 0,0
23.05.2019 02:00:00 11,4 5,0 5 3 9 5 E 13 0 -
23.05.2019 01:00:00 11,2 5,1 3 2 6 3 E 13 0 0,0
23.05.2019 00:00:00 12,7 5,1 1 1 3 2 E 14 0 0,0
22.05.2019 23:00:00 15,4 3,8 0 0 4 2 N 14 0 0,0
22.05.2019 22:00:00 19,1 4,1 1 1 10 5 NE 11 0 0,0
22.05.2019 21:00:00 22,3 1,3 5 3 16 9 NE 13 0 0,0
22.05.2019 20:00:00 24,0 0,9 2 1 16 9 WNW 16 0 -
22.05.2019 19:00:00 24,8 0,2 3 2 19 10 W 15 35 0,0
22.05.2019 18:00:00 25,9 -1,0 4 2 19 10 SW 6 32 0,0
22.05.2019 17:00:00 27,1 -1,7 4 2 22 12 WSW 15 4 0,0
22.05.2019 16:00:00 26,1 -1,0 6 3 23 13 SW 13 49 0,0
22.05.2019 15:00:00 24,7 0,2 6 3 26 14 WSW 14 19 0,0
22.05.2019 14:00:00 24,3 0,0 7 4 24 13 SW 16 60 -
22.05.2019 13:00:00 23,8 1,5 4 2 18 10 SW 12 60 0,0
22.05.2019 12:00:00 21,7 1,9 3 1 9 5 SW 14 60 0,0
22.05.2019 11:00:00 17,6 5,1 4 2 10 5 E 13 60 0,0
22.05.2019 10:00:00 15,5 4,3 5 3 13 7 E 13 60 0,0
22.05.2019 09:00:00 12,4 3,8 8 4 17 9 E 13 60 0,0
22.05.2019 08:00:00 10,3 3,8 5 3 12 7 E 11 52 -
22.05.2019 07:00:00 6,9 2,9 6 4 12 7 E 12 0 0,0
22.05.2019 06:00:00 6,8 2,5 3 2 6 3 ESE 13 0 0,0
22.05.2019 05:00:00 7,5 3,0 1 1 8 4 E 13 0 0,0
22.05.2019 04:00:00 8,7 3,6 5 3 8 4 E 13 0 0,0
22.05.2019 03:00:00 9,4 3,6 3 2 10 6 E 12 0 0,0
22.05.2019 02:00:00 9,0 3,4 2 1 8 4 E 13 0 -
22.05.2019 01:00:00 10,0 3,2 3 2 7 4 SE 13 0 0,0
22.05.2019 00:00:00 11,9 3,9 2 1 11 6 NW 14 0 0,0
21.05.2019 23:00:00 14,1 3,6 4 2 8 5 E 13 0 0,0
21.05.2019 22:00:00 16,3 2,3 4 2 20 11 NE 14 0 0,0
21.05.2019 21:00:00 18,4 0,0 7 4 30 16 N 14 0 0,0
21.05.2019 20:00:00 19,8 -0,3 12 7 24 13 NNW 14 24 -
21.05.2019 19:00:00 21,1 0,2 3 2 17 9 WNW 14 28 0,0
21.05.2019 18:00:00 21,7 0,2 9 5 19 11 N 15 27 0,0
21.05.2019 17:00:00 20,9 0,2 5 3 19 10 N 14 0 0,0
21.05.2019 16:00:00 22,2 -0,5 3 2 22 12 SW 15 50 0,0
21.05.2019 15:00:00 21,1 0,9 5 3 17 9 NW 13 11 0,0
21.05.2019 14:00:00 20,4 -0,3 7 4 21 12 SE 13 56 -
21.05.2019 13:00:00 20,3 1,3 5 3 17 9 E 15 60 0,0
21.05.2019 12:00:00 18,6 1,5 7 4 17 9 E 13 60 0,0
21.05.2019 11:00:00 16,7 3,0 6 4 20 11 E 12 60 0,0
21.05.2019 10:00:00 14,1 4,1 5 3 16 9 ENE 12 60 0,0
21.05.2019 09:00:00 10,5 3,6 8 4 18 10 E 11 60 0,0
21.05.2019 08:00:00 8,7 3,4 7 4 16 9 E 12 43 -
21.05.2019 07:00:00 7,4 3,2 8 4 14 8 E 12 0 0,0
21.05.2019 06:00:00 7,9 3,2 5 3 12 7 E 13 0 0,0
21.05.2019 05:00:00 8,6 3,0 5 3 12 6 E 13 0 0,0
21.05.2019 04:00:00 8,8 3,2 6 3 12 6 E 13 0 0,0
21.05.2019 03:00:00 7,1 3,8 2 1 5 3 E 12 0 0,0
21.05.2019 02:00:00 7,7 3,4 1 1 2 1 E 13 0 -
21.05.2019 01:00:00 9,2 2,3 0 0 3 1 N 13 0 0,0
21.05.2019 00:00:00 11,3 2,7 0 0 9 5 N 15 0 0,0
20.05.2019 23:00:00 13,5 1,7 5 3 13 7 ENE 14 0 0,0
20.05.2019 22:00:00 14,9 0,6 3 1 11 6 NNE 15 0 0,0
20.05.2019 21:00:00 16,7 -0,5 6 3 19 10 NNW 14 0 0,0
20.05.2019 20:00:00 18,3 -2,7 6 3 17 9 NW 15 8 -
20.05.2019 19:00:00 19,3 -3,0 4 2 17 9 WNW 14 25 0,0
20.05.2019 18:00:00 20,2 -4,2 4 2 22 12 W 14 2 0,0
20.05.2019 17:00:00 21,1 -2,7 5 3 24 13 NW 12 1 0,0
20.05.2019 16:00:00 20,5 -4,8 8 4 24 13 W 13 52 0,0
20.05.2019 15:00:00 19,8 -4,5 5 3 19 10 SSW 14 13 0,0
20.05.2019 14:00:00 18,8 -2,7 5 3 21 11 W 18 60 -
20.05.2019 13:00:00 18,8 -2,2 4 2 19 11 SW 15 60 0,0
20.05.2019 12:00:00 16,0 0,2 4 2 10 6 ENE 15 60 0,0
20.05.2019 11:00:00 15,3 0,6 2 1 10 5 NNW 12 60 0,0
20.05.2019 10:00:00 11,8 2,9 3 2 11 6 E 12 60 0,0
20.05.2019 09:00:00 8,6 2,1 6 3 12 7 E 12 60 0,0
20.05.2019 08:00:00 5,9 1,3 6 3 14 7 E 12 51 -
20.05.2019 07:00:00 2,9 0,6 5 3 10 6 E 12 0 0,0
20.05.2019 06:00:00 1,4 -1,0 3 1 9 5 SE 12 0 0,0
20.05.2019 05:00:00 1,5 -1,0 1 1 4 2 SSW 12 0 0,0
20.05.2019 04:00:00 2,1 -0,7 1 1 4 2 SE 12 0 0,0
20.05.2019 03:00:00 2,8 -0,3 1 1 4 2 S 13 0 0,0
20.05.2019 02:00:00 3,8 0,2 2 1 4 2 E 13 0 -

tt = temperature
td = dewpoint
ff = wind speed
fx = gusts
dd = wind direction
vv = visibility
sd = sunshine duration
rr = precipitation

Next stations